Battle Creek, Nebraska
Current Conditions -  °F | °C
As of 12:56 PM on Tuesday 27 Jan 2015 (Local Time) from KOFK Reporting Station
Clear Clear  
Wind Chill: 52°   Ceiling: Unl
Heat Index: 52°   Visibility: 10mi
Dew Point: 35°   Wind: 13mph
Humidity: 53%   Direction: 150°SSE
Pressure: 30.01"   Gusts: NA
Location:  42°N, 97.6°W
Report Text: KOFK 271856Z AUTO 15011KT 10SM CLR 11/02 A3001 RMK AO2 SLP172 T01110017
Loading
Personal Weather Stations






























Interactive Weather Map New forecast layout! Learn more

10-Day Weather Forecast

Advertisements
Track Severe Weather on mobile